NCAR-RAP Real-Time Weather Data

Output produced by METARs form (17 September 2019  16:35 UTC)
found at http://weather.rap.ucar.edu/surface/
 
KBHM 171553Z VRB03KT 10SM CLR 35/17 A3007 RMK AO2 SLP173 T03500167
KBHM 171453Z 00000KT 10SM CLR 32/18 A3008 RMK AO2 SLP174 T03220183 51005
KBHM 171353Z 00000KT 10SM CLR 28/19 A3007 RMK AO2 SLP174 T02830194
KBHM 171253Z 00000KT 10SM CLR 24/18 A3007 RMK AO2 SLP173 T02440183
KBHM 171153Z 00000KT 10SM CLR 21/18 A3006 RMK AO2 SLP170 T02110183 10239 20206 53015
KBHM 171053Z 00000KT 10SM CLR 21/18 A3004 RMK AO2 SLP164 T02060183
KBHM 170953Z 00000KT 10SM CLR 21/18 A3002 RMK AO2 SLP158 T02060178
KBHM 170853Z 00000KT 10SM CLR 22/18 A3002 RMK AO2 SLP154 T02170183 56007
KBHM 170753Z 00000KT 10SM CLR 22/18 A3002 RMK AO2 SLP154 T02220183
KBHM 170653Z 01003KT 10SM CLR 23/18 A3003 RMK AO2 SLP158 T02280178
KBHM 170553Z 00000KT 10SM CLR 23/19 A3004 RMK AO2 SLP161 T02330189 10311 20233 403670217 58000
KBHM 170453Z 00000KT 10SM CLR 24/19 A3004 RMK AO2 SLP162 T02440189
KBHM 170353Z 00000KT 10SM CLR 25/18 A3004 RMK AO2 SLP161 T02500178
KBHM 170253Z 00000KT 10SM CLR 26/19 A3004 RMK AO2 SLP162 T02560189 53006
KBHM 170053Z 00000KT 10SM CLR 28/17 A3002 RMK AO2 SLP157 T02830172
KBHM 162353Z 36005KT 10SM CLR 31/16 A3002 RMK AO2 SLP155 T03110156 10367 20311 56004
KBHM 162253Z 34007KT 10SM FEW085 34/15 A3002 RMK AO2 SLP156 T03440150
KBHM 162153Z 00000KT 10SM FEW085 36/14 A3002 RMK AO2 SLP155 T03610144
KBHM 162053Z 00000KT 10SM SCT085 36/16 A3003 RMK AO2 SLP158 T03560161 56022